< < Back
Terminal Aerodrome Forecast


Current Version              Previous Versions:   1  2  3  4  5  6  7  8  9  

Terminal Aerodrome Forecast

128
FTUS42 KFFC 021122
TAFCSG
TAF
KCSG 021122Z 0212/0312 10004KT P6SM FEW250
     FM021300 06004KT P6SM SCT010
     FM021500 08005KT P6SM SCT030
     FM030100 00000KT P6SM FEW250=

Latest METAR

838
SAUS70 KWBC 030954
MTRCSG
METAR KCSG 030951Z AUTO 00000KT 10SM OVC090 24/21 A2986 RMK AO2 SLP105
T02390211


USA.gov is the U.S. government's official web portal to all federal, state and local government web resources and services.